createdAt,value
2024-04-09T00:01:31.471Z,12.66
2024-04-09T00:03:58.484Z,12.60
2024-04-09T00:06:26.803Z,12.53
2024-04-09T00:08:57.300Z,12.68
2024-04-09T00:11:24.546Z,12.79
2024-04-09T00:13:55.634Z,12.98
2024-04-09T00:16:30.738Z,13.05
2024-04-09T00:18:59.046Z,13.09
2024-04-09T00:21:27.789Z,13.09
2024-04-09T00:23:58.611Z,13.12
2024-04-09T00:26:25.656Z,13.15
2024-04-09T00:28:52.949Z,12.98
2024-04-09T00:31:22.329Z,12.99
2024-04-09T00:33:49.431Z,13.04
2024-04-09T00:36:16.419Z,12.98
2024-04-09T00:38:43.209Z,13.06
2024-04-09T00:41:12.102Z,13.13
2024-04-09T00:43:39.180Z,13.07
2024-04-09T00:46:06.778Z,12.86
2024-04-09T00:48:34.887Z,12.66
2024-04-09T00:51:02.512Z,12.62
2024-04-09T00:53:30.014Z,12.32
2024-04-09T00:55:57.607Z,12.37
2024-04-09T00:58:25.380Z,12.57
2024-04-09T01:00:54.525Z,12.78
2024-04-09T01:03:21.888Z,12.88
2024-04-09T01:05:49.017Z,12.50
2024-04-09T01:08:15.732Z,12.51
2024-04-09T01:10:42.557Z,12.52
2024-04-09T01:13:09.377Z,12.58
2024-04-09T01:15:37.715Z,12.63
2024-04-09T01:18:05.063Z,12.56
2024-04-09T01:20:31.910Z,12.63
2024-04-09T01:22:58.692Z,12.71
2024-04-09T01:25:25.554Z,12.68
2024-04-09T01:27:52.820Z,12.57
2024-04-09T01:30:20.411Z,12.48
2024-04-09T01:32:47.940Z,12.48
2024-04-09T01:35:15.701Z,12.29
2024-04-09T01:37:44.099Z,12.27
2024-04-09T01:40:12.118Z,12.33
2024-04-09T01:42:39.083Z,12.39
2024-04-09T01:45:06.447Z,12.50
2024-04-09T01:47:34.142Z,12.53
2024-04-09T01:50:01.095Z,12.32
2024-04-09T01:52:27.937Z,12.33
2024-04-09T01:54:54.850Z,12.38
2024-04-09T01:57:21.620Z,12.30
2024-04-09T01:59:48.534Z,12.40
2024-04-09T02:02:18.061Z,12.44
2024-04-09T02:04:45.674Z,12.53
2024-04-09T02:07:13.095Z,12.65
2024-04-09T02:09:40.139Z,12.62
2024-04-09T02:12:09.310Z,12.59
2024-04-09T02:14:36.852Z,12.59
2024-04-09T02:17:03.819Z,12.61
2024-04-09T02:19:30.485Z,12.60
2024-04-09T02:21:57.761Z,12.66
2024-04-09T02:24:25.479Z,12.80
2024-04-09T02:26:52.404Z,12.55
2024-04-09T02:29:19.200Z,12.56
2024-04-09T02:31:46.082Z,12.65
2024-04-09T02:34:12.901Z,12.81
2024-04-09T02:36:39.810Z,12.97
2024-04-09T02:39:10.192Z,13.05
2024-04-09T02:41:40.913Z,13.02
2024-04-09T02:44:08.784Z,12.81
2024-04-09T02:46:37.339Z,12.81
2024-04-09T02:49:04.871Z,12.85
2024-04-09T02:51:31.950Z,12.71
2024-04-09T02:53:58.845Z,12.55
2024-04-09T02:56:25.725Z,12.69
2024-04-09T02:58:52.493Z,12.82
2024-04-09T03:01:19.546Z,12.87
2024-04-09T03:03:46.528Z,12.85
2024-04-09T03:06:14.909Z,12.83
2024-04-09T03:08:43.482Z,12.88
2024-04-09T03:11:17.880Z,12.90
2024-04-09T03:13:47.842Z,12.89
2024-04-09T03:16:16.733Z,12.93
2024-04-09T03:18:44.996Z,12.97
2024-04-09T03:21:12.582Z,12.94
2024-04-09T03:23:41.004Z,12.90
2024-04-09T03:26:10.382Z,12.84
2024-04-09T03:28:37.265Z,12.87
2024-04-09T03:31:04.412Z,12.86
2024-04-09T03:33:32.032Z,12.75
2024-04-09T03:36:00.932Z,12.55
2024-04-09T03:38:28.553Z,12.28
2024-04-09T03:41:00.747Z,12.30
2024-04-09T03:43:28.420Z,12.21
2024-04-09T03:46:12.290Z,11.86
2024-04-09T03:48:46.323Z,11.76
2024-04-09T03:51:15.994Z,11.75
2024-04-09T03:53:43.447Z,11.83
2024-04-09T03:56:14.305Z,11.92
2024-04-09T03:58:43.204Z,12.00
2024-04-09T04:01:10.920Z,11.99
2024-04-09T04:03:42.963Z,12.00
2024-04-09T04:06:10.072Z,12.02
2024-04-09T04:08:37.711Z,12.09
2024-04-09T04:11:06.976Z,12.07
2024-04-09T04:13:35.486Z,12.02
2024-04-09T04:16:06.769Z,12.05
2024-04-09T04:18:47.456Z,11.78
2024-04-09T04:21:17.571Z,11.70
2024-04-09T04:23:46.718Z,11.80
2024-04-09T04:26:14.721Z,11.92
2024-04-09T04:28:43.499Z,11.92
2024-04-09T04:31:12.752Z,11.89
2024-04-09T04:33:40.854Z,11.87
2024-04-09T04:36:09.494Z,11.89
2024-04-09T04:38:37.252Z,11.92
2024-04-09T04:41:05.951Z,11.85
2024-04-09T04:43:33.443Z,11.91
2024-04-09T04:46:00.821Z,11.96
2024-04-09T04:48:31.318Z,11.98
2024-04-09T04:50:58.736Z,11.79
2024-04-09T04:53:28.591Z,11.88
2024-04-09T04:55:55.513Z,11.92
2024-04-09T04:58:22.304Z,12.00
2024-04-09T05:00:49.532Z,12.06
2024-04-09T05:03:16.568Z,11.99
2024-04-09T05:05:43.472Z,12.08
2024-04-09T05:08:10.327Z,12.16
2024-04-09T05:10:38.821Z,12.24
2024-04-09T05:13:05.940Z,12.27
2024-04-09T05:15:32.684Z,12.23
2024-04-09T05:17:59.977Z,12.42
2024-04-09T05:20:30.508Z,12.55
2024-04-09T05:22:59.045Z,12.66
2024-04-09T05:25:31.788Z,12.74
2024-04-09T05:27:58.846Z,12.67
2024-04-09T05:30:25.707Z,12.39
2024-04-09T05:32:52.906Z,12.52
2024-04-09T05:35:22.606Z,12.64
2024-04-09T05:37:51.531Z,12.80
2024-04-09T05:40:18.785Z,12.90
2024-04-09T05:42:48.170Z,13.02
2024-04-09T05:45:17.557Z,13.17
2024-04-09T05:47:44.716Z,13.36
2024-04-09T05:50:11.976Z,13.40
2024-04-09T05:52:39.063Z,13.39
2024-04-09T05:55:07.301Z,13.65
2024-04-09T05:57:39.353Z,13.83
2024-04-09T06:00:17.023Z,13.73
2024-04-09T06:02:46.309Z,13.91
2024-04-09T06:05:13.196Z,14.14
2024-04-09T06:07:39.878Z,14.38
2024-04-09T06:10:07.119Z,14.68
2024-04-09T06:12:34.720Z,14.97
2024-04-09T06:15:02.181Z,15.08
2024-04-09T06:17:30.062Z,15.25
2024-04-09T06:19:58.960Z,15.44
2024-04-09T06:22:26.792Z,15.46
2024-04-09T06:24:53.931Z,15.78
2024-04-09T06:27:20.875Z,16.04
2024-04-09T06:29:47.796Z,16.29
2024-04-09T06:32:14.771Z,16.61
2024-04-09T06:34:43.598Z,17.01
2024-04-09T06:37:10.895Z,17.31
2024-04-09T06:39:38.252Z,17.55
2024-04-09T06:42:06.490Z,17.80
2024-04-09T06:44:33.711Z,18.00
2024-04-09T06:47:01.199Z,18.35
2024-04-09T06:49:28.260Z,18.75
2024-04-09T06:51:55.476Z,18.94
2024-04-09T06:54:22.913Z,19.23
2024-04-09T06:56:50.176Z,19.64
2024-04-09T06:59:17.549Z,20.03
2024-04-09T07:01:44.691Z,20.47
2024-04-09T07:04:11.857Z,20.33
2024-04-09T07:06:39.661Z,20.71
2024-04-09T07:09:07.814Z,21.27
2024-04-09T07:11:35.265Z,21.83
2024-04-09T07:14:02.241Z,22.36
2024-04-09T07:16:29.146Z,22.77
2024-04-09T07:18:56.203Z,23.10
2024-04-09T07:21:23.245Z,23.38
2024-04-09T07:23:50.622Z,23.48
2024-04-09T07:26:17.927Z,23.54
2024-04-09T07:28:45.040Z,23.34
2024-04-09T07:31:12.251Z,23.48
2024-04-09T07:33:39.730Z,23.78
2024-04-09T07:36:07.642Z,24.01
2024-04-09T07:38:34.595Z,24.17
2024-04-09T07:41:01.916Z,24.20
2024-04-09T07:43:34.264Z,23.48
2024-04-09T07:46:03.361Z,23.26
2024-04-09T07:48:30.490Z,23.21
2024-04-09T07:50:57.683Z,23.48
2024-04-09T07:53:24.628Z,23.66
2024-04-09T07:55:52.249Z,23.98
2024-04-09T07:58:19.072Z,24.37
2024-04-09T08:00:46.099Z,24.93
2024-04-09T08:03:13.217Z,25.50
2024-04-09T08:05:41.033Z,25.83
2024-04-09T08:08:09.346Z,25.69
2024-04-09T08:10:37.048Z,25.75
2024-04-09T08:13:04.179Z,25.92
2024-04-09T08:15:31.379Z,26.13
2024-04-09T08:17:58.938Z,26.09
2024-04-09T08:20:26.009Z,26.51
2024-04-09T08:22:53.629Z,26.46
2024-04-09T08:25:21.983Z,26.32
2024-04-09T08:27:52.817Z,26.46
2024-04-09T08:30:19.871Z,26.83
2024-04-09T08:32:51.801Z,27.14
2024-04-09T08:35:19.017Z,27.52
2024-04-09T08:37:46.588Z,27.40
2024-04-09T08:40:15.278Z,27.80
2024-04-09T08:42:46.262Z,28.02
2024-04-09T08:45:17.278Z,28.17
2024-04-09T08:47:50.318Z,27.60
2024-04-09T08:50:18.101Z,27.34
2024-04-09T08:52:46.367Z,27.27
2024-04-09T08:55:14.610Z,26.77
2024-04-09T08:57:42.494Z,27.17
2024-04-09T09:00:09.713Z,27.36
2024-04-09T09:02:37.087Z,27.55
2024-04-09T09:05:04.274Z,27.80
2024-04-09T09:07:31.367Z,28.34
2024-04-09T09:10:04.699Z,28.81
2024-04-09T09:12:31.743Z,28.88
2024-04-09T09:15:05.581Z,29.19
2024-04-09T09:17:34.871Z,29.33
2024-04-09T09:20:10.313Z,29.14
2024-04-09T09:22:49.042Z,29.28
2024-04-09T09:25:20.309Z,29.68
2024-04-09T09:27:47.858Z,29.72
2024-04-09T09:30:15.859Z,30.24
2024-04-09T09:32:51.732Z,30.61
2024-04-09T09:35:19.797Z,30.86
2024-04-09T09:37:50.776Z,30.90
2024-04-09T09:40:18.372Z,30.83
2024-04-09T09:42:46.771Z,31.32
2024-04-09T09:45:15.103Z,31.35
2024-04-09T09:47:42.224Z,31.35
2024-04-09T09:50:18.163Z,31.61
2024-04-09T09:52:46.718Z,31.18
2024-04-09T09:55:14.066Z,31.50
2024-04-09T09:57:46.079Z,31.70
2024-04-09T10:00:17.022Z,31.13
2024-04-09T10:05:16.756Z,30.94
2024-04-09T10:07:47.150Z,31.01
2024-04-09T10:10:25.192Z,31.23
2024-04-09T10:12:55.366Z,31.61
2024-04-09T10:15:29.436Z,31.84
2024-04-09T10:18:05.320Z,32.11
2024-04-09T10:20:37.217Z,32.56
2024-04-09T10:23:07.296Z,33.01
2024-04-09T10:25:41.524Z,32.51
2024-04-09T10:28:12.711Z,31.47
2024-04-09T10:30:41.578Z,30.51
2024-04-09T10:33:09.269Z,30.87
2024-04-09T10:35:36.312Z,30.85
2024-04-09T10:38:07.466Z,30.78
2024-04-09T10:40:38.129Z,30.95
2024-04-09T10:43:09.450Z,31.27
2024-04-09T10:45:47.679Z,31.03
2024-04-09T10:48:23.882Z,31.27
2024-04-09T10:50:52.219Z,31.43
2024-04-09T10:53:19.626Z,31.90
2024-04-09T10:55:46.761Z,32.30
2024-04-09T10:58:18.572Z,32.63
2024-04-09T11:00:56.211Z,33.13
2024-04-09T11:03:24.738Z,33.45
2024-04-09T11:05:52.881Z,33.68
2024-04-09T11:08:31.870Z,33.50
2024-04-09T11:11:03.398Z,33.83
2024-04-09T11:13:31.795Z,34.08
2024-04-09T11:15:59.284Z,34.43
2024-04-09T11:18:27.047Z,34.82
2024-04-09T11:20:56.887Z,34.59
2024-04-09T11:23:24.859Z,34.38
2024-04-09T11:25:55.431Z,33.95
2024-04-09T11:28:24.061Z,33.81
2024-04-09T11:30:55.784Z,33.81
2024-04-09T11:33:23.180Z,34.04
2024-04-09T11:35:54.617Z,34.02
2024-04-09T11:38:22.197Z,34.04
2024-04-09T11:40:49.178Z,34.26
2024-04-09T11:43:16.094Z,34.41
2024-04-09T11:45:43.680Z,34.72
2024-04-09T11:48:12.633Z,34.87
2024-04-09T11:50:39.709Z,35.19
2024-04-09T11:53:07.074Z,35.28
2024-04-09T11:55:34.044Z,34.79
2024-04-09T11:58:00.897Z,35.11
2024-04-09T12:00:27.971Z,35.66
2024-04-09T12:02:55.597Z,35.90
2024-04-09T12:05:23.435Z,35.03
2024-04-09T12:07:50.422Z,34.76
2024-04-09T12:10:17.758Z,34.69
2024-04-09T12:12:44.834Z,34.86
2024-04-09T12:15:11.875Z,34.83
2024-04-09T12:17:39.034Z,34.50
2024-04-09T12:20:06.690Z,34.45
2024-04-09T12:22:34.416Z,34.27
2024-04-09T12:25:01.653Z,33.83
2024-04-09T12:27:29.165Z,33.74
2024-04-09T12:29:56.004Z,33.57
2024-04-09T12:32:23.332Z,33.50
2024-04-09T12:34:52.089Z,32.65
2024-04-09T12:37:19.068Z,32.59
2024-04-09T12:39:45.913Z,32.60
2024-04-09T12:42:12.957Z,32.29
2024-04-09T12:44:39.771Z,32.01
2024-04-09T12:47:07.266Z,31.95
2024-04-09T12:49:42.034Z,31.80
2024-04-09T12:52:14.941Z,31.50
2024-04-09T12:54:42.837Z,31.20
2024-04-09T12:57:09.851Z,30.62
2024-04-09T13:02:12.922Z,30.29
2024-04-09T13:04:40.387Z,30.12
2024-04-09T13:07:10.256Z,30.02
2024-04-09T13:09:37.567Z,29.72
2024-04-09T13:12:04.915Z,29.28
2024-04-09T13:14:31.831Z,28.84
2024-04-09T13:17:01.532Z,29.05
2024-04-09T13:19:31.336Z,28.87
2024-04-09T13:21:58.267Z,28.45
2024-04-09T13:24:25.051Z,28.14
2024-04-09T13:26:51.919Z,28.27
2024-04-09T13:29:19.025Z,28.27
2024-04-09T13:31:46.127Z,27.99
2024-04-09T13:34:13.486Z,28.09
2024-04-09T13:36:40.365Z,27.25
2024-04-09T13:39:09.087Z,26.44
2024-04-09T13:41:35.955Z,26.58
2024-04-09T13:44:03.028Z,26.83
2024-04-09T13:46:29.935Z,26.25
2024-04-09T13:48:57.385Z,26.69
2024-04-09T13:51:24.395Z,26.20
2024-04-09T13:53:52.042Z,26.13
2024-04-09T13:56:19.250Z,25.33
2024-04-09T13:58:46.146Z,24.63
2024-04-09T14:01:13.309Z,24.53
2024-04-09T14:03:40.661Z,24.77
2024-04-09T14:06:07.975Z,24.98
2024-04-09T14:08:35.016Z,24.99
2024-04-09T14:11:02.885Z,24.37
2024-04-09T14:13:30.124Z,24.44
2024-04-09T14:15:57.437Z,23.89
2024-04-09T14:18:32.108Z,23.78
2024-04-09T14:21:03.729Z,23.68
2024-04-09T14:23:31.504Z,23.37
2024-04-09T14:25:59.639Z,23.15
2024-04-09T14:28:26.556Z,22.82
2024-04-09T14:30:53.613Z,22.60
2024-04-09T14:33:20.437Z,22.27
2024-04-09T14:35:47.299Z,22.09
2024-04-09T14:38:14.191Z,21.96
2024-04-09T14:40:42.114Z,22.04
2024-04-09T14:43:09.208Z,21.60
2024-04-09T14:45:36.189Z,21.73
2024-04-09T14:48:03.827Z,21.72
2024-04-09T14:50:30.977Z,21.53
2024-04-09T14:52:57.870Z,21.60
2024-04-09T14:55:24.756Z,21.69
2024-04-09T14:57:51.811Z,21.72
2024-04-09T15:00:19.143Z,21.71
2024-04-09T15:02:46.140Z,21.59
2024-04-09T15:05:14.223Z,21.32
2024-04-09T15:07:41.336Z,21.86
2024-04-09T15:10:09.077Z,21.46
2024-04-09T15:12:42.665Z,21.41
2024-04-09T15:15:09.996Z,21.41
2024-04-09T15:17:36.900Z,21.22
2024-04-09T15:20:05.275Z,21.29
2024-04-09T15:22:32.134Z,21.37
2024-04-09T15:24:58.913Z,21.59
2024-04-09T15:27:25.700Z,21.65
2024-04-09T15:29:52.475Z,21.73
2024-04-09T15:32:19.548Z,21.48
2024-04-09T15:34:49.651Z,21.44
2024-04-09T15:37:17.142Z,21.54
2024-04-09T15:39:43.923Z,21.45
2024-04-09T15:42:11.079Z,21.37
2024-04-09T15:44:38.045Z,21.45
2024-04-09T15:47:05.104Z,21.51
2024-04-09T15:49:31.995Z,21.44
2024-04-09T15:51:58.892Z,21.31
2024-04-09T15:54:25.757Z,21.40
2024-04-09T15:56:52.600Z,21.29
2024-04-09T15:59:19.450Z,20.68
2024-04-09T16:01:49.303Z,19.89
2024-04-09T16:04:16.490Z,19.12
2024-04-09T16:06:46.742Z,18.57
2024-04-09T16:09:17.395Z,18.37
2024-04-09T16:11:44.536Z,18.23
2024-04-09T16:14:11.669Z,18.05
2024-04-09T16:16:38.615Z,17.93
2024-04-09T16:19:10.032Z,18.01
2024-04-09T16:21:38.492Z,17.43
2024-04-09T16:24:05.436Z,16.84
2024-04-09T16:26:32.353Z,16.70
2024-04-09T16:28:59.587Z,16.50
2024-04-09T16:31:26.400Z,16.19
2024-04-09T16:33:54.043Z,16.14
2024-04-09T16:36:21.073Z,16.03
2024-04-09T16:38:48.913Z,15.49
2024-04-09T16:41:16.042Z,15.42
2024-04-09T16:43:43.567Z,15.29
2024-04-09T16:46:11.052Z,15.00
2024-04-09T16:48:38.177Z,14.95
2024-04-09T16:51:06.119Z,14.83
2024-04-09T16:53:33.147Z,14.64
2024-04-09T16:56:04.221Z,14.42
2024-04-09T16:58:31.808Z,14.30
2024-04-09T17:00:59.258Z,14.33
2024-04-09T17:03:26.392Z,14.20
2024-04-09T17:05:53.634Z,14.19
2024-04-09T17:08:21.398Z,14.43
2024-04-09T17:10:58.020Z,14.54
2024-04-09T17:13:25.266Z,14.65
2024-04-09T17:15:52.518Z,14.23
2024-04-09T17:18:19.608Z,14.30
2024-04-09T17:20:47.200Z,14.10
2024-04-09T17:23:15.946Z,14.42
2024-04-09T17:25:42.837Z,14.06
2024-04-09T17:28:09.701Z,13.86
2024-04-09T17:30:36.756Z,13.83
2024-04-09T17:33:04.079Z,13.58
2024-04-09T17:35:33.330Z,13.49
2024-04-09T17:38:03.231Z,13.63
2024-04-09T17:40:30.126Z,13.45
2024-04-09T17:42:58.629Z,13.33
2024-04-09T17:45:25.445Z,13.44
2024-04-09T17:47:52.512Z,13.38
2024-04-09T17:50:19.573Z,13.25
2024-04-09T17:52:46.641Z,13.40
2024-04-09T17:55:13.500Z,13.18
2024-04-09T17:57:40.305Z,13.10
2024-04-09T18:00:07.947Z,13.40
2024-04-09T18:02:35.029Z,13.20
2024-04-09T18:05:02.110Z,13.36
2024-04-09T18:07:29.126Z,13.74
2024-04-09T18:09:55.926Z,13.84
2024-04-09T18:12:24.621Z,13.72
2024-04-09T18:14:51.506Z,13.89
2024-04-09T18:17:24.041Z,14.00
2024-04-09T18:19:51.365Z,13.37
2024-04-09T18:22:18.164Z,13.20
2024-04-09T18:24:45.318Z,12.89
2024-04-09T18:27:12.131Z,12.92
2024-04-09T18:29:38.911Z,12.97
2024-04-09T18:32:06.946Z,13.17
2024-04-09T18:34:37.046Z,12.73
2024-04-09T18:37:04.544Z,12.57
2024-04-09T18:39:31.430Z,12.32
2024-04-09T18:41:58.222Z,12.23
2024-04-09T18:44:30.255Z,12.55
2024-04-09T18:46:57.286Z,12.64
2024-04-09T18:49:24.194Z,12.84
2024-04-09T18:51:51.113Z,12.34
2024-04-09T18:54:17.879Z,12.19
2024-04-09T18:56:44.817Z,12.79
2024-04-09T18:59:11.650Z,12.63
2024-04-09T19:01:39.006Z,12.64
2024-04-09T19:04:07.727Z,12.05
2024-04-09T19:06:34.599Z,11.89
2024-04-09T19:09:01.383Z,11.80
2024-04-09T19:11:29.139Z,11.88
2024-04-09T19:13:57.044Z,11.83
2024-04-09T19:16:26.231Z,12.12
2024-04-09T19:18:53.194Z,11.65
2024-04-09T19:21:20.231Z,11.40
2024-04-09T19:23:47.231Z,11.64
2024-04-09T19:26:14.270Z,12.14
2024-04-09T19:28:41.143Z,11.55
2024-04-09T19:31:07.992Z,11.55
2024-04-09T19:33:36.342Z,11.15
2024-04-09T19:36:04.856Z,11.18
2024-04-09T19:38:31.873Z,10.86
2024-04-09T19:40:58.971Z,10.72
2024-04-09T19:43:37.468Z,10.60
2024-04-09T19:46:09.595Z,10.75
2024-04-09T19:48:36.860Z,10.90
2024-04-09T19:51:04.383Z,11.11
2024-04-09T19:53:44.907Z,10.91
2024-04-09T19:56:18.482Z,10.57
2024-04-09T19:58:45.395Z,10.60
2024-04-09T20:01:12.270Z,10.11
2024-04-09T20:03:39.250Z,10.12
2024-04-09T20:06:06.319Z,10.05
2024-04-09T20:08:33.192Z,9.89
2024-04-09T20:11:03.323Z,9.81
2024-04-09T20:13:30.217Z,9.69
2024-04-09T20:15:57.046Z,10.04
2024-04-09T20:18:27.209Z,9.91
2024-04-09T20:20:54.397Z,9.90
2024-04-09T20:23:21.401Z,10.01
2024-04-09T20:25:59.201Z,9.80
2024-04-09T20:28:26.201Z,9.76
2024-04-09T20:30:54.215Z,10.02
2024-04-09T20:33:21.371Z,9.82
2024-04-09T20:35:48.396Z,10.01
2024-04-09T20:40:42.984Z,9.87
2024-04-09T20:43:09.775Z,9.72
2024-04-09T20:45:36.747Z,9.84
2024-04-09T20:48:04.273Z,9.63
2024-04-09T20:50:31.472Z,9.27
2024-04-09T20:52:59.100Z,9.46
2024-04-09T20:55:25.961Z,9.29
2024-04-09T20:57:53.277Z,9.64
2024-04-09T21:00:20.113Z,9.49
2024-04-09T21:02:47.290Z,9.59
2024-04-09T21:05:14.156Z,9.64
2024-04-09T21:07:41.555Z,9.37
2024-04-09T21:10:09.798Z,9.19
2024-04-09T21:12:37.234Z,9.14
2024-04-09T21:15:05.302Z,9.00
2024-04-09T21:17:32.763Z,8.79
2024-04-09T21:19:59.790Z,8.95
2024-04-09T21:22:26.619Z,9.00
2024-04-09T21:24:53.428Z,8.61
2024-04-09T21:27:20.244Z,8.44
2024-04-09T21:29:47.034Z,8.76
2024-04-09T21:32:14.104Z,9.00
2024-04-09T21:34:41.973Z,8.72
2024-04-09T21:37:08.834Z,8.78
2024-04-09T21:39:35.986Z,8.95
2024-04-09T21:42:02.798Z,8.77
2024-04-09T21:44:29.633Z,8.78
2024-04-09T21:46:56.539Z,8.96
2024-04-09T21:49:23.775Z,8.76
2024-04-09T21:51:50.756Z,9.15
2024-04-09T21:54:17.734Z,9.20
2024-04-09T21:56:44.552Z,9.13
2024-04-09T21:59:11.404Z,9.22
2024-04-09T22:01:38.364Z,9.11
2024-04-09T22:04:05.350Z,8.85
2024-04-09T22:06:32.171Z,8.80
2024-04-09T22:08:58.997Z,8.83
2024-04-09T22:11:25.955Z,8.71
2024-04-09T22:13:52.911Z,9.04
2024-04-09T22:16:19.711Z,8.72
2024-04-09T22:18:46.629Z,8.88
2024-04-09T22:21:13.694Z,8.47
2024-04-09T22:23:40.609Z,8.19
2024-04-09T22:26:07.511Z,7.99
2024-04-09T22:28:35.285Z,7.86
2024-04-09T22:31:05.227Z,7.76
2024-04-09T22:33:32.331Z,7.73
2024-04-09T22:35:59.244Z,7.82
2024-04-09T22:38:26.210Z,7.80
2024-04-09T22:40:53.566Z,8.23
2024-04-09T22:43:20.432Z,8.11
2024-04-09T22:45:47.312Z,7.94
2024-04-09T22:48:14.539Z,7.95
2024-04-09T22:50:41.822Z,8.07
2024-04-09T22:53:08.730Z,8.11
2024-04-09T22:55:35.549Z,8.01
2024-04-09T22:58:02.360Z,7.90
2024-04-09T23:00:29.158Z,7.70
2024-04-09T23:02:56.061Z,7.56
2024-04-09T23:05:23.119Z,7.54
2024-04-09T23:07:49.988Z,7.63
2024-04-09T23:10:16.914Z,7.69
2024-04-09T23:12:43.710Z,7.59
2024-04-09T23:15:10.616Z,7.53
2024-04-09T23:17:37.624Z,7.26
2024-04-09T23:20:05.047Z,7.21
2024-04-09T23:22:31.911Z,7.00
2024-04-09T23:24:58.707Z,7.03
2024-04-09T23:27:25.505Z,6.92
2024-04-09T23:29:52.346Z,6.98
2024-04-09T23:32:19.278Z,7.05
2024-04-09T23:34:46.714Z,7.05
2024-04-09T23:37:13.620Z,7.04
2024-04-09T23:39:40.425Z,7.16
2024-04-09T23:42:07.868Z,7.28
2024-04-09T23:44:34.877Z,7.38
2024-04-09T23:47:03.128Z,7.51
2024-04-09T23:49:30.853Z,7.55
2024-04-09T23:51:57.525Z,7.60
2024-04-09T23:54:24.400Z,7.60
2024-04-09T23:56:51.337Z,7.43
2024-04-09T23:59:19.002Z,7.36
